createdAt,value
2022-10-06T00:00:19.476Z,89.27
2022-10-06T00:03:16.495Z,89.04
2022-10-06T00:06:14.305Z,89.24
2022-10-06T00:09:11.351Z,89.08
2022-10-06T00:12:08.818Z,89.20
2022-10-06T00:15:07.011Z,89.00
2022-10-06T00:18:04.711Z,88.07
2022-10-06T00:21:01.817Z,87.71
2022-10-06T00:23:59.513Z,87.78
2022-10-06T00:26:56.286Z,88.12
2022-10-06T00:29:53.575Z,88.31
2022-10-06T00:32:52.042Z,88.45
2022-10-06T00:35:56.588Z,88.49
2022-10-06T00:38:53.769Z,88.40
2022-10-06T00:41:50.118Z,87.82
2022-10-06T00:44:49.678Z,88.17
2022-10-06T00:47:46.651Z,88.64
2022-10-06T00:50:43.770Z,88.90
2022-10-06T00:53:41.900Z,89.42
2022-10-06T00:56:40.469Z,89.72
2022-10-06T00:59:37.206Z,88.98
2022-10-06T01:02:49.313Z,88.91
2022-10-06T01:05:50.339Z,89.36
2022-10-06T01:08:47.652Z,91.11
2022-10-06T01:11:45.141Z,92.03
2022-10-06T01:14:42.771Z,92.17
2022-10-06T01:17:44.572Z,91.88
2022-10-06T01:20:43.135Z,91.48
2022-10-06T01:23:40.377Z,92.86
2022-10-06T01:26:41.057Z,93.09
2022-10-06T01:29:39.091Z,92.24
2022-10-06T01:32:37.640Z,92.59
2022-10-06T01:35:35.497Z,93.53
2022-10-06T01:38:32.783Z,93.32
2022-10-06T01:41:34.444Z,93.12
2022-10-06T01:44:32.271Z,93.14
2022-10-06T01:47:29.811Z,94.16
2022-10-06T01:50:26.454Z,94.48
2022-10-06T01:53:23.461Z,94.28
2022-10-06T01:56:23.177Z,93.85
2022-10-06T01:59:20.333Z,93.19
2022-10-06T02:02:17.622Z,92.99
2022-10-06T02:05:15.653Z,93.32
2022-10-06T02:08:16.614Z,93.72
2022-10-06T02:11:14.581Z,93.88
2022-10-06T02:14:13.219Z,93.63
2022-10-06T02:17:10.589Z,92.86
2022-10-06T02:20:07.814Z,93.28
2022-10-06T02:23:04.717Z,92.82
2022-10-06T02:26:02.720Z,93.19
2022-10-06T02:29:00.400Z,94.04
2022-10-06T02:31:58.406Z,93.83
2022-10-06T02:34:55.983Z,93.67
2022-10-06T02:37:53.610Z,93.83
2022-10-06T02:40:51.936Z,93.59
2022-10-06T02:43:49.709Z,93.67
2022-10-06T02:46:46.776Z,93.55
2022-10-06T02:49:43.383Z,93.36
2022-10-06T02:52:42.912Z,93.63
2022-10-06T02:55:41.690Z,94.04
2022-10-06T02:58:39.959Z,93.88
2022-10-06T03:01:40.945Z,94.20
2022-10-06T03:04:42.897Z,94.08
2022-10-06T03:07:41.344Z,94.37
2022-10-06T03:10:38.809Z,94.15
2022-10-06T03:13:36.565Z,93.33
2022-10-06T03:16:40.751Z,92.96
2022-10-06T03:19:43.692Z,93.70
2022-10-06T03:22:41.903Z,93.28
2022-10-06T03:25:38.219Z,92.87
2022-10-06T03:28:35.738Z,93.02
2022-10-06T03:31:32.976Z,92.77
2022-10-06T03:34:30.305Z,91.88
2022-10-06T03:37:29.654Z,92.05
2022-10-06T03:40:26.581Z,92.50
2022-10-06T03:43:23.592Z,92.33
2022-10-06T03:46:25.267Z,91.86
2022-10-06T03:49:22.600Z,91.96
2022-10-06T03:52:25.776Z,91.79
2022-10-06T03:55:23.743Z,91.42
2022-10-06T03:58:20.753Z,90.76
2022-10-06T04:01:25.671Z,90.34
2022-10-06T04:04:23.446Z,90.63
2022-10-06T04:07:25.587Z,90.60
2022-10-06T04:10:22.603Z,90.07
2022-10-06T04:13:20.689Z,89.59
2022-10-06T04:16:23.624Z,89.37
2022-10-06T04:19:20.818Z,89.32
2022-10-06T04:22:21.907Z,89.03
2022-10-06T04:25:18.761Z,89.51
2022-10-06T04:28:16.040Z,89.22
2022-10-06T04:31:20.919Z,88.73
2022-10-06T04:34:18.982Z,88.93
2022-10-06T04:37:16.458Z,89.07
2022-10-06T04:40:14.724Z,88.84
2022-10-06T04:43:11.633Z,88.73
2022-10-06T04:46:30.393Z,89.11
2022-10-06T04:49:26.858Z,89.54
2022-10-06T04:52:24.646Z,88.71
2022-10-06T04:55:21.571Z,88.41
2022-10-06T04:58:18.511Z,87.68
2022-10-06T05:01:16.782Z,87.04
2022-10-06T05:04:15.094Z,86.52
2022-10-06T05:07:12.809Z,86.14
2022-10-06T05:10:10.770Z,86.89
2022-10-06T05:13:11.572Z,87.27
2022-10-06T05:16:09.465Z,86.96
2022-10-06T05:19:08.335Z,85.82
2022-10-06T05:22:08.445Z,85.57
2022-10-06T05:25:07.202Z,85.37
2022-10-06T05:28:04.552Z,85.53
2022-10-06T05:31:03.498Z,84.88
2022-10-06T05:34:00.971Z,85.90
2022-10-06T05:36:58.617Z,85.72
2022-10-06T05:39:55.653Z,85.58
2022-10-06T05:42:55.489Z,85.35
2022-10-06T05:45:54.243Z,85.61
2022-10-06T05:48:52.554Z,86.12
2022-10-06T05:51:53.196Z,86.52
2022-10-06T05:55:02.950Z,88.48
2022-10-06T05:57:59.953Z,88.64
2022-10-06T06:00:56.920Z,88.49
2022-10-06T06:04:02.779Z,87.83
2022-10-06T06:07:04.902Z,87.70
2022-10-06T06:10:02.783Z,88.16
2022-10-06T06:13:00.520Z,87.80
2022-10-06T06:16:14.293Z,87.94
2022-10-06T06:19:12.493Z,87.55
2022-10-06T06:22:10.969Z,87.94
2022-10-06T06:25:13.118Z,87.51
2022-10-06T06:28:11.647Z,87.82
2022-10-06T06:31:17.583Z,87.61
2022-10-06T06:34:17.649Z,87.25
2022-10-06T06:37:15.560Z,87.64
2022-10-06T06:40:15.924Z,87.83
2022-10-06T06:43:13.070Z,88.02
2022-10-06T06:46:37.062Z,87.61
2022-10-06T06:49:43.858Z,88.46
2022-10-06T06:52:43.923Z,88.50
2022-10-06T06:55:50.452Z,88.02
2022-10-06T06:58:49.116Z,87.95
2022-10-06T07:01:48.073Z,87.54
2022-10-06T07:04:49.819Z,86.53
2022-10-06T07:07:49.742Z,86.65
2022-10-06T07:10:48.653Z,86.83
2022-10-06T07:13:46.630Z,86.23
2022-10-06T07:17:01.847Z,86.20
2022-10-06T07:20:18.656Z,85.65
2022-10-06T07:23:35.390Z,84.58
2022-10-06T07:26:34.613Z,85.48
2022-10-06T07:29:31.764Z,84.06
2022-10-06T07:32:30.907Z,83.72
2022-10-06T07:35:28.871Z,82.28
2022-10-06T07:38:26.035Z,83.15
2022-10-06T07:41:25.848Z,83.61
2022-10-06T07:44:28.703Z,84.19
2022-10-06T07:47:26.014Z,83.59
2022-10-06T07:50:26.056Z,84.08
2022-10-06T07:53:27.480Z,83.15
2022-10-06T07:56:30.137Z,82.74
2022-10-06T07:59:28.289Z,82.89
2022-10-06T08:02:30.217Z,82.99
2022-10-06T08:05:29.829Z,82.54
2022-10-06T08:08:26.887Z,83.16
2022-10-06T08:11:23.547Z,83.04
2022-10-06T08:14:22.323Z,82.72
2022-10-06T08:17:19.692Z,81.21
2022-10-06T08:20:18.427Z,81.29
2022-10-06T08:23:16.805Z,80.76
2022-10-06T08:26:14.537Z,80.58
2022-10-06T08:29:11.879Z,80.91
2022-10-06T08:32:08.587Z,79.94
2022-10-06T08:35:05.874Z,80.11
2022-10-06T08:38:02.941Z,79.44
2022-10-06T08:40:59.612Z,79.63
2022-10-06T08:44:01.293Z,80.98
2022-10-06T08:47:01.047Z,79.49
2022-10-06T08:49:58.421Z,80.19
2022-10-06T08:53:08.016Z,79.46
2022-10-06T08:56:17.950Z,79.25
2022-10-06T08:59:16.268Z,78.86
2022-10-06T09:02:32.434Z,77.86
2022-10-06T09:05:31.390Z,77.78
2022-10-06T09:08:45.129Z,78.42
2022-10-06T09:12:06.828Z,75.91
2022-10-06T09:15:30.116Z,76.66
2022-10-06T09:19:07.218Z,77.08
2022-10-06T09:22:04.916Z,77.21
2022-10-06T09:25:15.502Z,75.20
2022-10-06T09:28:15.801Z,76.88
2022-10-06T09:31:18.950Z,76.37
2022-10-06T09:34:40.385Z,74.85
2022-10-06T09:38:09.058Z,75.11
2022-10-06T09:41:06.355Z,74.85
2022-10-06T09:44:23.254Z,73.81
2022-10-06T09:47:36.921Z,74.64
2022-10-06T09:50:35.263Z,73.82
2022-10-06T09:53:36.876Z,74.00
2022-10-06T09:56:36.535Z,73.04
2022-10-06T09:59:40.012Z,70.65
2022-10-06T10:02:38.419Z,71.04
2022-10-06T10:05:38.423Z,69.75
2022-10-06T10:08:36.283Z,70.38
2022-10-06T10:11:52.669Z,70.44
2022-10-06T10:14:49.894Z,70.11
2022-10-06T10:17:48.906Z,70.11
2022-10-06T10:20:57.493Z,69.83
2022-10-06T10:23:55.596Z,70.62
2022-10-06T10:27:13.392Z,70.10
2022-10-06T10:30:12.036Z,69.30
2022-10-06T10:33:15.739Z,69.20
2022-10-06T10:36:13.964Z,69.04
2022-10-06T10:39:13.389Z,70.19
2022-10-06T10:42:42.343Z,69.42
2022-10-06T10:46:08.446Z,68.22
2022-10-06T10:49:27.744Z,67.63
2022-10-06T10:52:27.488Z,66.98
2022-10-06T10:55:42.074Z,65.71
2022-10-06T10:58:40.581Z,65.09
2022-10-06T11:01:42.005Z,63.59
2022-10-06T11:04:43.695Z,63.90
2022-10-06T11:08:09.077Z,62.33
2022-10-06T11:11:10.818Z,61.90
2022-10-06T11:14:35.931Z,63.32
2022-10-06T11:17:45.355Z,62.00
2022-10-06T11:20:47.845Z,60.65
2022-10-06T11:23:47.105Z,62.17
2022-10-06T11:27:13.049Z,62.54
2022-10-06T11:30:20.142Z,63.03
2022-10-06T11:33:19.897Z,63.26
2022-10-06T11:36:32.555Z,61.24
2022-10-06T11:39:39.320Z,60.88
2022-10-06T11:42:46.144Z,63.20
2022-10-06T11:46:31.162Z,62.70
2022-10-06T11:49:29.197Z,61.97
2022-10-06T11:52:26.171Z,64.01
2022-10-06T11:55:24.069Z,63.36
2022-10-06T11:58:41.266Z,62.78
2022-10-06T12:01:39.201Z,63.37
2022-10-06T12:04:36.269Z,62.22
2022-10-06T12:07:56.090Z,61.85
2022-10-06T12:10:52.847Z,61.08
2022-10-06T12:17:30.645Z,63.65
2022-10-06T12:20:53.707Z,63.49
2022-10-06T12:23:54.506Z,64.53
2022-10-06T12:26:58.307Z,64.64
2022-10-06T12:30:22.695Z,64.91
2022-10-06T12:33:20.036Z,63.21
2022-10-06T12:36:20.718Z,63.36
2022-10-06T12:39:24.307Z,63.97
2022-10-06T12:42:21.080Z,64.56
2022-10-06T12:45:18.155Z,63.17
2022-10-06T12:48:31.307Z,64.54
2022-10-06T12:51:43.866Z,60.80
2022-10-06T12:54:46.739Z,60.24
2022-10-06T12:57:49.157Z,60.69
2022-10-06T13:00:46.212Z,59.83
2022-10-06T13:03:47.390Z,58.87
2022-10-06T13:06:49.323Z,59.84
2022-10-06T13:09:46.818Z,59.41
2022-10-06T13:12:49.156Z,60.61
2022-10-06T13:15:46.363Z,60.24
2022-10-06T13:18:44.165Z,60.97
2022-10-06T13:21:41.198Z,59.67
2022-10-06T13:24:37.897Z,60.80
2022-10-06T13:27:35.157Z,58.87
2022-10-06T13:30:37.709Z,57.78
2022-10-06T13:33:40.515Z,58.72
2022-10-06T13:36:39.291Z,58.14
2022-10-06T13:39:36.479Z,58.07
2022-10-06T13:42:33.678Z,57.68
2022-10-06T13:45:31.837Z,59.41
2022-10-06T13:48:30.420Z,59.87
2022-10-06T13:51:32.078Z,59.15
2022-10-06T13:54:38.254Z,58.30
2022-10-06T13:57:47.959Z,58.53
2022-10-06T14:00:52.217Z,55.60
2022-10-06T14:03:49.306Z,57.12
2022-10-06T14:06:59.003Z,58.33
2022-10-06T14:09:56.110Z,58.30
2022-10-06T14:12:53.146Z,57.81
2022-10-06T14:15:52.204Z,58.27
2022-10-06T14:18:56.868Z,58.99
2022-10-06T14:21:53.863Z,59.89
2022-10-06T14:24:51.256Z,59.11
2022-10-06T14:27:48.229Z,58.71
2022-10-06T14:30:45.022Z,59.99
2022-10-06T14:33:42.175Z,61.77
2022-10-06T14:36:38.959Z,58.50
2022-10-06T14:39:36.299Z,57.93
2022-10-06T14:42:32.967Z,57.26
2022-10-06T14:45:30.092Z,56.80
2022-10-06T14:48:28.474Z,57.25
2022-10-06T14:51:26.359Z,58.52
2022-10-06T14:54:23.602Z,58.90
2022-10-06T14:57:21.627Z,58.84
2022-10-06T15:00:20.828Z,59.26
2022-10-06T15:03:18.063Z,59.87
2022-10-06T15:06:33.489Z,59.88
2022-10-06T15:09:31.179Z,58.62
2022-10-06T15:12:33.111Z,58.63
2022-10-06T15:15:33.704Z,59.11
2022-10-06T15:18:31.187Z,59.41
2022-10-06T15:21:28.961Z,59.83
2022-10-06T15:24:26.002Z,59.51
2022-10-06T15:30:44.858Z,59.26
2022-10-06T15:33:43.584Z,59.76
2022-10-06T15:36:42.139Z,59.25
2022-10-06T15:39:39.397Z,59.41
2022-10-06T15:42:36.164Z,59.06
2022-10-06T15:45:33.183Z,59.40
2022-10-06T15:48:30.232Z,59.75
2022-10-06T15:51:31.826Z,59.91
2022-10-06T15:54:30.500Z,59.66
2022-10-06T15:57:28.360Z,59.38
2022-10-06T16:00:25.704Z,60.16
2022-10-06T16:03:40.904Z,60.37
2022-10-06T16:06:48.713Z,60.75
2022-10-06T16:09:49.972Z,60.93
2022-10-06T16:12:47.219Z,61.65
2022-10-06T16:15:44.226Z,61.76
2022-10-06T16:18:41.442Z,61.50
2022-10-06T16:21:38.594Z,61.54
2022-10-06T16:24:36.182Z,61.81
2022-10-06T16:27:33.693Z,62.00
2022-10-06T16:30:31.533Z,61.49
2022-10-06T16:33:27.956Z,62.11
2022-10-06T16:36:25.281Z,61.71
2022-10-06T16:39:22.291Z,62.34
2022-10-06T16:42:19.816Z,62.00
2022-10-06T16:45:17.492Z,62.51
2022-10-06T16:48:14.524Z,62.59
2022-10-06T16:51:24.965Z,62.33
2022-10-06T16:54:22.330Z,61.85
2022-10-06T16:57:19.826Z,61.92
2022-10-06T17:00:17.327Z,62.27
2022-10-06T17:03:14.502Z,62.17
2022-10-06T17:06:15.999Z,63.86
2022-10-06T17:09:18.009Z,62.74
2022-10-06T17:12:15.124Z,63.84
2022-10-06T17:15:12.405Z,64.25
2022-10-06T17:18:09.018Z,63.04
2022-10-06T17:21:25.809Z,62.61
2022-10-06T17:24:25.641Z,63.04
2022-10-06T17:27:23.800Z,63.52
2022-10-06T17:30:21.122Z,63.18
2022-10-06T17:33:17.982Z,63.15
2022-10-06T17:36:17.575Z,63.50
2022-10-06T17:39:16.559Z,64.58
2022-10-06T17:42:13.801Z,63.69
2022-10-06T17:45:11.603Z,64.35
2022-10-06T17:48:07.883Z,64.07
2022-10-06T17:51:05.469Z,64.07
2022-10-06T17:54:04.486Z,64.67
2022-10-06T17:57:01.455Z,65.76
2022-10-06T17:59:59.116Z,64.68
2022-10-06T18:03:00.337Z,65.40
2022-10-06T18:06:00.450Z,65.17
2022-10-06T18:08:59.492Z,65.42
2022-10-06T18:11:56.891Z,65.91
2022-10-06T18:14:55.061Z,66.07
2022-10-06T18:17:52.577Z,66.32
2022-10-06T18:20:49.281Z,67.09
2022-10-06T18:23:47.166Z,66.45
2022-10-06T18:26:45.024Z,66.99
2022-10-06T18:29:42.611Z,66.83
2022-10-06T18:34:58.824Z,66.78
2022-10-06T18:36:15.075Z,67.61
2022-10-06T18:39:13.379Z,68.34
2022-10-06T18:42:11.860Z,69.10
2022-10-06T18:45:28.958Z,68.69
2022-10-06T18:48:45.030Z,68.91
2022-10-06T18:51:44.692Z,69.15
2022-10-06T18:54:44.525Z,69.04
2022-10-06T18:57:41.641Z,69.81
2022-10-06T19:00:39.495Z,69.14
2022-10-06T19:03:36.375Z,69.14
2022-10-06T19:06:33.392Z,69.45
2022-10-06T19:09:30.191Z,70.45
2022-10-06T19:12:27.006Z,70.77
2022-10-06T19:15:24.570Z,70.07
2022-10-06T19:18:21.478Z,69.98
2022-10-06T19:21:18.433Z,69.98
2022-10-06T19:24:16.637Z,70.39
2022-10-06T19:27:15.905Z,71.55
2022-10-06T19:30:13.657Z,71.22
2022-10-06T19:33:11.519Z,71.62
2022-10-06T19:36:09.402Z,72.46
2022-10-06T19:39:09.451Z,72.78
2022-10-06T19:42:25.648Z,72.75
2022-10-06T19:45:23.276Z,73.17
2022-10-06T19:48:20.546Z,73.79
2022-10-06T19:51:17.883Z,74.75
2022-10-06T19:54:15.362Z,74.56
2022-10-06T19:57:12.798Z,74.12
2022-10-06T20:00:10.916Z,74.32
2022-10-06T20:03:10.360Z,73.62
2022-10-06T20:06:09.484Z,73.27
2022-10-06T20:09:08.967Z,71.61
2022-10-06T20:12:06.240Z,71.41
2022-10-06T20:15:04.365Z,71.85
2022-10-06T20:18:02.065Z,71.56
2022-10-06T20:20:59.136Z,72.11
2022-10-06T20:23:59.882Z,71.41
2022-10-06T20:26:57.200Z,70.68
2022-10-06T20:29:55.068Z,70.95
2022-10-06T20:32:53.605Z,71.13
2022-10-06T20:35:50.530Z,72.03
2022-10-06T20:39:05.945Z,73.12
2022-10-06T20:42:03.686Z,73.20
2022-10-06T20:45:00.159Z,73.17
2022-10-06T20:47:58.306Z,74.64
2022-10-06T20:50:55.454Z,75.98
2022-10-06T20:53:52.363Z,77.72
2022-10-06T20:56:52.087Z,79.20
2022-10-06T20:59:49.332Z,78.74
2022-10-06T21:02:46.681Z,78.05
2022-10-06T21:05:50.252Z,78.51
2022-10-06T21:08:47.883Z,78.82
2022-10-06T21:11:45.740Z,79.04
2022-10-06T21:14:42.496Z,79.40
2022-10-06T21:17:41.523Z,78.58
2022-10-06T21:20:41.840Z,79.00
2022-10-06T21:23:47.789Z,78.81
2022-10-06T21:26:45.155Z,79.38
2022-10-06T21:29:42.707Z,79.48
2022-10-06T21:32:39.536Z,80.58
2022-10-06T21:35:36.455Z,82.99
2022-10-06T21:38:33.287Z,84.08
2022-10-06T21:41:41.079Z,84.32
2022-10-06T21:44:38.711Z,84.07
2022-10-06T21:47:35.761Z,84.56
2022-10-06T21:50:33.417Z,85.15
2022-10-06T21:53:32.217Z,83.27
2022-10-06T21:56:30.419Z,81.36
2022-10-06T21:59:27.696Z,82.06
2022-10-06T22:02:24.617Z,80.55
2022-10-06T22:05:21.221Z,79.61
2022-10-06T22:08:18.412Z,81.70
2022-10-06T22:11:21.597Z,81.23
2022-10-06T22:14:18.724Z,81.89
2022-10-06T22:17:15.536Z,82.88
2022-10-06T22:20:12.507Z,82.15
2022-10-06T22:23:09.225Z,82.54
2022-10-06T22:26:06.868Z,83.78
2022-10-06T22:29:07.902Z,84.78
2022-10-06T22:32:05.350Z,85.24
2022-10-06T22:35:02.922Z,86.01
2022-10-06T22:38:00.665Z,87.18
2022-10-06T22:41:05.998Z,88.27
2022-10-06T22:44:03.961Z,88.77
2022-10-06T22:47:01.434Z,88.32
2022-10-06T22:49:58.456Z,90.01
2022-10-06T22:52:55.613Z,90.57
2022-10-06T22:55:52.729Z,90.58
2022-10-06T22:58:49.447Z,90.79
2022-10-06T23:01:46.786Z,91.36
2022-10-06T23:04:43.263Z,91.82
2022-10-06T23:07:40.800Z,92.86
2022-10-06T23:10:37.600Z,93.07
2022-10-06T23:13:34.478Z,93.35
2022-10-06T23:16:31.548Z,93.02
2022-10-06T23:19:28.604Z,91.77
2022-10-06T23:22:25.532Z,91.78
2022-10-06T23:25:26.992Z,91.88
2022-10-06T23:28:24.666Z,92.03
2022-10-06T23:31:21.654Z,92.69
2022-10-06T23:34:18.683Z,92.59
2022-10-06T23:37:15.637Z,93.26
2022-10-06T23:40:12.555Z,93.40
2022-10-06T23:43:09.571Z,93.76
2022-10-06T23:46:06.781Z,94.68
2022-10-06T23:49:03.464Z,94.59
2022-10-06T23:52:01.318Z,94.47
2022-10-06T23:54:58.905Z,94.79
2022-10-06T23:57:55.389Z,95.27
